Terminal Aerodrome Forecast
Issued by NWS

Home | Current Version | Previous Version | Text Only | Print | Product List | Glossary On
Versions: 1 2 3 4 5 6 7 8 9 10 11 12 13 14 15 16 17
000
FTUS46 KMFR 242345
TAFRBG
TAF
KRBG 242345Z 2500/2524 16006KT P6SM -SHRA SCT015 OVC035
     FM250200 VRB03KT P6SM -SHRA OVC025
     FM250800 00000KT 3SM -SHRA BR OVC020
     FM251800 VRB03KT P6SM VCSH SCT025 OVC040=

USA.gov is the U.S. government's official web portal to all federal, state and local government web resources and services.